sensor_id;sensor_type;location;lat;lon;timestamp;P1;durP1;ratioP1;P2;durP2;ratioP2
12861;SDS011;6499;66.348;14.134;2023-03-16T00:00:30;2.23;;;1.37;;
12861;SDS011;6499;66.348;14.134;2023-03-16T00:02:57;3.47;;;1.27;;
12861;SDS011;6499;66.348;14.134;2023-03-16T00:05:23;4.50;;;1.30;;
12861;SDS011;6499;66.348;14.134;2023-03-16T00:07:52;1.63;;;0.80;;
12861;SDS011;6499;66.348;14.134;2023-03-16T00:10:18;1.70;;;0.90;;
12861;SDS011;6499;66.348;14.134;2023-03-16T00:12:51;1.00;;;0.90;;
12861;SDS011;6499;66.348;14.134;2023-03-16T00:15:18;2.83;;;1.00;;
12861;SDS011;6499;66.348;14.134;2023-03-16T00:17:44;3.67;;;1.07;;
12861;SDS011;6499;66.348;14.134;2023-03-16T00:20:12;2.03;;;1.60;;
12861;SDS011;6499;66.348;14.134;2023-03-16T00:22:39;6.07;;;3.40;;
12861;SDS011;6499;66.348;14.134;2023-03-16T00:25:07;6.37;;;3.47;;
12861;SDS011;6499;66.348;14.134;2023-03-16T00:27:34;7.10;;;3.87;;
12861;SDS011;6499;66.348;14.134;2023-03-16T00:30:00;6.77;;;3.47;;
12861;SDS011;6499;66.348;14.134;2023-03-16T00:32:28;6.40;;;3.20;;
12861;SDS011;6499;66.348;14.134;2023-03-16T00:34:56;5.97;;;2.87;;
12861;SDS011;6499;66.348;14.134;2023-03-16T00:37:23;4.03;;;2.20;;
12861;SDS011;6499;66.348;14.134;2023-03-16T00:39:49;2.90;;;1.90;;
12861;SDS011;6499;66.348;14.134;2023-03-16T00:42:18;4.27;;;2.10;;
12861;SDS011;6499;66.348;14.134;2023-03-16T00:44:44;4.63;;;2.20;;
12861;SDS011;6499;66.348;14.134;2023-03-16T00:47:11;4.93;;;2.17;;
12861;SDS011;6499;66.348;14.134;2023-03-16T00:49:39;4.30;;;2.33;;
12861;SDS011;6499;66.348;14.134;2023-03-16T00:52:07;5.53;;;1.90;;
12861;SDS011;6499;66.348;14.134;2023-03-16T00:54:33;2.57;;;2.00;;
12861;SDS011;6499;66.348;14.134;2023-03-16T00:57:00;2.57;;;1.40;;
12861;SDS011;6499;66.348;14.134;2023-03-16T00:59:29;3.47;;;1.27;;
12861;SDS011;6499;66.348;14.134;2023-03-16T01:01:55;3.23;;;1.47;;
12861;SDS011;6499;66.348;14.134;2023-03-16T01:04:22;1.80;;;1.23;;
12861;SDS011;6499;66.348;14.134;2023-03-16T01:06:48;2.80;;;1.20;;
12861;SDS011;6499;66.348;14.134;2023-03-16T01:09:15;1.63;;;0.90;;
12861;SDS011;6499;66.348;14.134;2023-03-16T01:11:42;2.30;;;1.23;;
12861;SDS011;6499;66.348;14.134;2023-03-16T01:14:09;1.90;;;1.00;;
12861;SDS011;6499;66.348;14.134;2023-03-16T01:16:37;2.13;;;0.80;;
12861;SDS011;6499;66.348;14.134;2023-03-16T01:19:04;1.63;;;1.00;;
12861;SDS011;6499;66.348;14.134;2023-03-16T01:21:30;1.03;;;0.93;;
12861;SDS011;6499;66.348;14.134;2023-03-16T01:23:57;2.03;;;1.20;;
12861;SDS011;6499;66.348;14.134;2023-03-16T01:26:24;1.30;;;1.07;;
12861;SDS011;6499;66.348;14.134;2023-03-16T01:28:52;1.63;;;0.90;;
12861;SDS011;6499;66.348;14.134;2023-03-16T01:31:18;1.70;;;0.87;;
12861;SDS011;6499;66.348;14.134;2023-03-16T01:33:46;2.60;;;1.33;;
12861;SDS011;6499;66.348;14.134;2023-03-16T01:36:13;1.80;;;1.30;;
12861;SDS011;6499;66.348;14.134;2023-03-16T01:38:40;1.87;;;0.90;;
12861;SDS011;6499;66.348;14.134;2023-03-16T01:41:07;1.43;;;1.00;;
12861;SDS011;6499;66.348;14.134;2023-03-16T01:43:34;2.53;;;1.13;;
12861;SDS011;6499;66.348;14.134;2023-03-16T01:48:48;3.27;;;1.20;;
12861;SDS011;6499;66.348;14.134;2023-03-16T01:51:16;2.03;;;1.00;;
12861;SDS011;6499;66.348;14.134;2023-03-16T01:53:45;3.20;;;1.00;;
12861;SDS011;6499;66.348;14.134;2023-03-16T01:56:12;1.67;;;0.87;;
12861;SDS011;6499;66.348;14.134;2023-03-16T01:58:41;2.33;;;0.80;;
12861;SDS011;6499;66.348;14.134;2023-03-16T02:01:08;1.87;;;1.10;;
12861;SDS011;6499;66.348;14.134;2023-03-16T02:03:35;3.53;;;0.93;;
12861;SDS011;6499;66.348;14.134;2023-03-16T02:06:03;1.33;;;0.93;;
12861;SDS011;6499;66.348;14.134;2023-03-16T02:08:32;1.50;;;0.93;;
12861;SDS011;6499;66.348;14.134;2023-03-16T02:10:58;2.13;;;1.03;;
12861;SDS011;6499;66.348;14.134;2023-03-16T02:13:25;1.20;;;0.77;;
12861;SDS011;6499;66.348;14.134;2023-03-16T02:15:53;2.53;;;1.20;;
12861;SDS011;6499;66.348;14.134;2023-03-16T02:18:20;1.70;;;1.00;;
12861;SDS011;6499;66.348;14.134;2023-03-16T02:20:49;3.23;;;1.20;;
12861;SDS011;6499;66.348;14.134;2023-03-16T02:23:18;1.77;;;1.10;;
12861;SDS011;6499;66.348;14.134;2023-03-16T02:25:46;1.77;;;0.90;;
12861;SDS011;6499;66.348;14.134;2023-03-16T02:28:18;2.00;;;0.80;;
12861;SDS011;6499;66.348;14.134;2023-03-16T02:30:47;1.63;;;1.10;;
12861;SDS011;6499;66.348;14.134;2023-03-16T02:33:14;1.50;;;0.80;;
12861;SDS011;6499;66.348;14.134;2023-03-16T02:35:41;1.90;;;0.70;;
12861;SDS011;6499;66.348;14.134;2023-03-16T02:38:08;1.13;;;0.93;;
12861;SDS011;6499;66.348;14.134;2023-03-16T02:40:34;2.67;;;0.97;;
12861;SDS011;6499;66.348;14.134;2023-03-16T02:43:04;1.80;;;0.90;;
12861;SDS011;6499;66.348;14.134;2023-03-16T02:45:32;1.77;;;1.07;;
12861;SDS011;6499;66.348;14.134;2023-03-16T02:48:04;1.23;;;1.00;;
12861;SDS011;6499;66.348;14.134;2023-03-16T02:50:32;1.93;;;0.90;;
12861;SDS011;6499;66.348;14.134;2023-03-16T02:52:59;2.27;;;1.00;;
12861;SDS011;6499;66.348;14.134;2023-03-16T02:55:25;3.00;;;1.13;;
12861;SDS011;6499;66.348;14.134;2023-03-16T02:57:52;2.37;;;0.70;;
12861;SDS011;6499;66.348;14.134;2023-03-16T03:00:18;1.80;;;0.80;;
12861;SDS011;6499;66.348;14.134;2023-03-16T03:02:46;3.33;;;0.80;;
12861;SDS011;6499;66.348;14.134;2023-03-16T03:05:14;1.33;;;1.00;;
12861;SDS011;6499;66.348;14.134;2023-03-16T03:07:40;1.50;;;0.70;;
12861;SDS011;6499;66.348;14.134;2023-03-16T03:10:07;2.13;;;1.00;;
12861;SDS011;6499;66.348;14.134;2023-03-16T03:12:34;1.30;;;0.90;;
12861;SDS011;6499;66.348;14.134;2023-03-16T03:15:00;1.97;;;1.13;;
12861;SDS011;6499;66.348;14.134;2023-03-16T03:17:28;1.80;;;0.93;;
12861;SDS011;6499;66.348;14.134;2023-03-16T03:19:55;2.13;;;0.90;;
12861;SDS011;6499;66.348;14.134;2023-03-16T03:22:23;1.10;;;0.90;;
12861;SDS011;6499;66.348;14.134;2023-03-16T03:24:50;1.80;;;0.70;;
12861;SDS011;6499;66.348;14.134;2023-03-16T03:27:17;1.43;;;0.90;;
12861;SDS011;6499;66.348;14.134;2023-03-16T03:29:43;0.97;;;0.67;;
12861;SDS011;6499;66.348;14.134;2023-03-16T03:34:41;1.83;;;0.93;;
12861;SDS011;6499;66.348;14.134;2023-03-16T03:37:08;1.87;;;1.53;;
12861;SDS011;6499;66.348;14.134;2023-03-16T03:42:14;2.73;;;1.10;;
12861;SDS011;6499;66.348;14.134;2023-03-16T03:44:41;1.40;;;1.00;;
12861;SDS011;6499;66.348;14.134;2023-03-16T03:47:07;2.40;;;0.90;;
12861;SDS011;6499;66.348;14.134;2023-03-16T03:49:34;2.80;;;0.90;;
12861;SDS011;6499;66.348;14.134;2023-03-16T03:52:01;1.30;;;1.10;;
12861;SDS011;6499;66.348;14.134;2023-03-16T03:54:29;1.53;;;0.70;;
12861;SDS011;6499;66.348;14.134;2023-03-16T03:56:55;1.87;;;1.00;;
12861;SDS011;6499;66.348;14.134;2023-03-16T03:59:23;1.10;;;0.60;;
12861;SDS011;6499;66.348;14.134;2023-03-16T04:01:49;1.53;;;1.10;;
12861;SDS011;6499;66.348;14.134;2023-03-16T04:04:17;2.40;;;1.00;;
12861;SDS011;6499;66.348;14.134;2023-03-16T04:06:44;2.80;;;1.10;;
12861;SDS011;6499;66.348;14.134;2023-03-16T04:09:10;3.50;;;1.80;;
12861;SDS011;6499;66.348;14.134;2023-03-16T04:11:37;3.17;;;1.57;;
12861;SDS011;6499;66.348;14.134;2023-03-16T04:14:03;1.27;;;1.03;;
12861;SDS011;6499;66.348;14.134;2023-03-16T04:16:31;2.23;;;1.20;;
12861;SDS011;6499;66.348;14.134;2023-03-16T04:18:58;2.43;;;1.10;;
12861;SDS011;6499;66.348;14.134;2023-03-16T04:21:25;1.80;;;1.20;;
12861;SDS011;6499;66.348;14.134;2023-03-16T04:23:52;2.53;;;1.20;;
12861;SDS011;6499;66.348;14.134;2023-03-16T04:26:19;1.57;;;1.13;;
12861;SDS011;6499;66.348;14.134;2023-03-16T04:28:45;1.57;;;1.20;;
12861;SDS011;6499;66.348;14.134;2023-03-16T04:31:12;2.40;;;1.30;;
12861;SDS011;6499;66.348;14.134;2023-03-16T04:33:40;1.50;;;1.27;;
12861;SDS011;6499;66.348;14.134;2023-03-16T04:36:07;2.67;;;1.20;;
12861;SDS011;6499;66.348;14.134;2023-03-16T04:38:34;1.20;;;0.90;;
12861;SDS011;6499;66.348;14.134;2023-03-16T04:41:01;2.30;;;0.97;;
12861;SDS011;6499;66.348;14.134;2023-03-16T04:43:28;1.47;;;1.00;;
12861;SDS011;6499;66.348;14.134;2023-03-16T04:45:54;2.30;;;0.93;;
12861;SDS011;6499;66.348;14.134;2023-03-16T04:48:21;2.10;;;0.80;;
12861;SDS011;6499;66.348;14.134;2023-03-16T04:50:49;1.57;;;0.80;;
12861;SDS011;6499;66.348;14.134;2023-03-16T04:53:16;1.33;;;0.70;;
12861;SDS011;6499;66.348;14.134;2023-03-16T04:55:43;1.13;;;0.80;;
12861;SDS011;6499;66.348;14.134;2023-03-16T04:58:09;3.17;;;0.90;;
12861;SDS011;6499;66.348;14.134;2023-03-16T05:00:37;0.93;;;0.70;;
12861;SDS011;6499;66.348;14.134;2023-03-16T05:03:04;1.83;;;0.90;;
12861;SDS011;6499;66.348;14.134;2023-03-16T05:05:31;1.30;;;0.80;;
12861;SDS011;6499;66.348;14.134;2023-03-16T05:08:00;1.73;;;0.87;;
12861;SDS011;6499;66.348;14.134;2023-03-16T05:10:27;2.67;;;0.90;;
12861;SDS011;6499;66.348;14.134;2023-03-16T05:12:53;1.50;;;0.97;;
12861;SDS011;6499;66.348;14.134;2023-03-16T05:15:20;1.40;;;0.80;;
12861;SDS011;6499;66.348;14.134;2023-03-16T05:17:46;1.80;;;0.83;;
12861;SDS011;6499;66.348;14.134;2023-03-16T05:20:13;1.10;;;0.70;;
12861;SDS011;6499;66.348;14.134;2023-03-16T05:22:40;1.63;;;0.70;;
12861;SDS011;6499;66.348;14.134;2023-03-16T05:25:08;1.90;;;0.90;;
12861;SDS011;6499;66.348;14.134;2023-03-16T05:27:39;1.53;;;0.70;;
12861;SDS011;6499;66.348;14.134;2023-03-16T05:30:06;1.13;;;0.70;;
12861;SDS011;6499;66.348;14.134;2023-03-16T05:32:32;0.77;;;0.63;;
12861;SDS011;6499;66.348;14.134;2023-03-16T05:34:59;2.13;;;1.03;;
12861;SDS011;6499;66.348;14.134;2023-03-16T05:37:27;1.47;;;0.70;;
12861;SDS011;6499;66.348;14.134;2023-03-16T05:39:53;1.00;;;0.80;;
12861;SDS011;6499;66.348;14.134;2023-03-16T05:42:23;3.53;;;0.90;;
12861;SDS011;6499;66.348;14.134;2023-03-16T05:44:51;2.00;;;0.80;;
12861;SDS011;6499;66.348;14.134;2023-03-16T05:47:17;2.60;;;1.03;;
12861;SDS011;6499;66.348;14.134;2023-03-16T05:49:44;1.90;;;0.80;;
12861;SDS011;6499;66.348;14.134;2023-03-16T05:54:49;1.87;;;0.90;;
12861;SDS011;6499;66.348;14.134;2023-03-16T05:57:15;1.97;;;0.90;;
12861;SDS011;6499;66.348;14.134;2023-03-16T05:59:43;1.60;;;0.87;;
12861;SDS011;6499;66.348;14.134;2023-03-16T06:02:10;0.90;;;0.70;;
12861;SDS011;6499;66.348;14.134;2023-03-16T06:04:36;1.30;;;0.70;;
12861;SDS011;6499;66.348;14.134;2023-03-16T06:07:03;1.07;;;0.87;;
12861;SDS011;6499;66.348;14.134;2023-03-16T06:09:29;2.13;;;0.70;;
12861;SDS011;6499;66.348;14.134;2023-03-16T06:11:56;1.33;;;0.83;;
12861;SDS011;6499;66.348;14.134;2023-03-16T06:14:23;0.97;;;0.60;;
12861;SDS011;6499;66.348;14.134;2023-03-16T06:16:51;0.90;;;0.80;;
12861;SDS011;6499;66.348;14.134;2023-03-16T06:19:17;1.83;;;0.73;;
12861;SDS011;6499;66.348;14.134;2023-03-16T06:21:44;1.53;;;1.10;;
12861;SDS011;6499;66.348;14.134;2023-03-16T06:24:10;1.77;;;1.30;;
12861;SDS011;6499;66.348;14.134;2023-03-16T06:26:37;1.87;;;1.13;;
12861;SDS011;6499;66.348;14.134;2023-03-16T06:29:03;2.57;;;1.50;;
12861;SDS011;6499;66.348;14.134;2023-03-16T06:31:30;2.87;;;1.23;;
12861;SDS011;6499;66.348;14.134;2023-03-16T06:33:59;4.13;;;3.30;;
12861;SDS011;6499;66.348;14.134;2023-03-16T06:36:26;3.27;;;2.63;;
12861;SDS011;6499;66.348;14.134;2023-03-16T06:38:53;2.97;;;2.07;;
12861;SDS011;6499;66.348;14.134;2023-03-16T06:41:19;2.43;;;1.80;;
12861;SDS011;6499;66.348;14.134;2023-03-16T06:43:46;1.47;;;1.20;;
12861;SDS011;6499;66.348;14.134;2023-03-16T06:46:12;2.27;;;1.10;;
12861;SDS011;6499;66.348;14.134;2023-03-16T06:48:39;0.80;;;0.80;;
12861;SDS011;6499;66.348;14.134;2023-03-16T06:51:07;2.40;;;1.60;;
12861;SDS011;6499;66.348;14.134;2023-03-16T06:53:33;2.40;;;1.93;;
12861;SDS011;6499;66.348;14.134;2023-03-16T06:56:00;1.00;;;1.00;;
12861;SDS011;6499;66.348;14.134;2023-03-16T06:58:26;1.10;;;0.90;;
12861;SDS011;6499;66.348;14.134;2023-03-16T07:00:53;1.10;;;1.00;;
12861;SDS011;6499;66.348;14.134;2023-03-16T07:03:19;2.67;;;0.93;;
12861;SDS011;6499;66.348;14.134;2023-03-16T07:05:46;1.10;;;0.90;;
12861;SDS011;6499;66.348;14.134;2023-03-16T07:08:14;1.67;;;1.07;;
12861;SDS011;6499;66.348;14.134;2023-03-16T07:10:40;1.83;;;1.37;;
12861;SDS011;6499;66.348;14.134;2023-03-16T07:13:09;3.00;;;2.10;;
12861;SDS011;6499;66.348;14.134;2023-03-16T07:15:35;2.30;;;1.90;;
12861;SDS011;6499;66.348;14.134;2023-03-16T07:18:02;2.77;;;1.87;;
12861;SDS011;6499;66.348;14.134;2023-03-16T07:20:28;2.47;;;1.53;;
12861;SDS011;6499;66.348;14.134;2023-03-16T07:22:57;3.83;;;1.53;;
12861;SDS011;6499;66.348;14.134;2023-03-16T07:25:25;2.07;;;1.30;;
12861;SDS011;6499;66.348;14.134;2023-03-16T07:27:51;6.40;;;4.83;;
12861;SDS011;6499;66.348;14.134;2023-03-16T07:30:18;6.63;;;4.50;;
12861;SDS011;6499;66.348;14.134;2023-03-16T07:32:44;3.27;;;2.50;;
12861;SDS011;6499;66.348;14.134;2023-03-16T07:35:11;2.87;;;1.83;;
12861;SDS011;6499;66.348;14.134;2023-03-16T07:37:37;1.67;;;1.40;;
12861;SDS011;6499;66.348;14.134;2023-03-16T07:40:04;2.13;;;1.50;;
12861;SDS011;6499;66.348;14.134;2023-03-16T07:42:34;2.83;;;1.20;;
12861;SDS011;6499;66.348;14.134;2023-03-16T07:45:01;2.47;;;1.43;;
12861;SDS011;6499;66.348;14.134;2023-03-16T07:47:27;2.03;;;1.60;;
12861;SDS011;6499;66.348;14.134;2023-03-16T07:49:54;3.03;;;1.70;;
12861;SDS011;6499;66.348;14.134;2023-03-16T07:52:21;2.50;;;1.97;;
12861;SDS011;6499;66.348;14.134;2023-03-16T07:54:48;2.93;;;1.67;;
12861;SDS011;6499;66.348;14.134;2023-03-16T07:57:15;2.23;;;1.67;;
12861;SDS011;6499;66.348;14.134;2023-03-16T07:59:43;2.93;;;1.60;;
12861;SDS011;6499;66.348;14.134;2023-03-16T08:02:10;2.57;;;1.23;;
12861;SDS011;6499;66.348;14.134;2023-03-16T08:04:37;1.70;;;1.27;;
12861;SDS011;6499;66.348;14.134;2023-03-16T08:07:06;2.47;;;1.10;;
12861;SDS011;6499;66.348;14.134;2023-03-16T08:09:33;2.63;;;1.23;;
12861;SDS011;6499;66.348;14.134;2023-03-16T08:12:00;1.83;;;1.43;;
12861;SDS011;6499;66.348;14.134;2023-03-16T08:14:27;9.73;;;4.83;;
12861;SDS011;6499;66.348;14.134;2023-03-16T08:16:56;2.70;;;1.90;;
12861;SDS011;6499;66.348;14.134;2023-03-16T08:19:23;3.20;;;1.70;;
12861;SDS011;6499;66.348;14.134;2023-03-16T08:21:49;3.07;;;1.57;;
12861;SDS011;6499;66.348;14.134;2023-03-16T08:24:16;2.93;;;1.80;;
12861;SDS011;6499;66.348;14.134;2023-03-16T08:26:42;2.30;;;1.20;;
12861;SDS011;6499;66.348;14.134;2023-03-16T08:29:08;2.63;;;1.40;;
12861;SDS011;6499;66.348;14.134;2023-03-16T08:31:35;4.37;;;1.53;;
12861;SDS011;6499;66.348;14.134;2023-03-16T08:34:03;2.00;;;1.20;;
12861;SDS011;6499;66.348;14.134;2023-03-16T08:36:30;1.00;;;0.90;;
12861;SDS011;6499;66.348;14.134;2023-03-16T08:38:57;1.53;;;0.97;;
12861;SDS011;6499;66.348;14.134;2023-03-16T08:41:25;1.43;;;0.80;;
12861;SDS011;6499;66.348;14.134;2023-03-16T08:43:54;1.50;;;0.63;;
12861;SDS011;6499;66.348;14.134;2023-03-16T08:46:21;1.50;;;0.70;;
12861;SDS011;6499;66.348;14.134;2023-03-16T08:48:48;0.90;;;0.57;;
12861;SDS011;6499;66.348;14.134;2023-03-16T08:51:17;1.57;;;1.23;;
12861;SDS011;6499;66.348;14.134;2023-03-16T08:53:44;1.13;;;0.70;;
12861;SDS011;6499;66.348;14.134;2023-03-16T08:56:11;1.37;;;0.80;;
12861;SDS011;6499;66.348;14.134;2023-03-16T08:58:39;1.20;;;0.80;;
12861;SDS011;6499;66.348;14.134;2023-03-16T09:01:09;2.10;;;0.70;;
12861;SDS011;6499;66.348;14.134;2023-03-16T09:03:36;1.63;;;0.90;;
12861;SDS011;6499;66.348;14.134;2023-03-16T09:06:05;2.93;;;1.70;;
12861;SDS011;6499;66.348;14.134;2023-03-16T09:08:33;2.00;;;0.70;;
12861;SDS011;6499;66.348;14.134;2023-03-16T09:11:00;1.77;;;0.87;;
12861;SDS011;6499;66.348;14.134;2023-03-16T09:13:28;1.20;;;0.80;;
12861;SDS011;6499;66.348;14.134;2023-03-16T09:15:54;1.80;;;0.90;;
12861;SDS011;6499;66.348;14.134;2023-03-16T09:18:22;2.17;;;1.10;;
12861;SDS011;6499;66.348;14.134;2023-03-16T09:20:50;1.80;;;0.90;;
12861;SDS011;6499;66.348;14.134;2023-03-16T09:23:16;1.27;;;0.87;;
12861;SDS011;6499;66.348;14.134;2023-03-16T09:25:46;2.40;;;1.07;;
12861;SDS011;6499;66.348;14.134;2023-03-16T09:28:12;1.63;;;0.80;;
12861;SDS011;6499;66.348;14.134;2023-03-16T09:30:39;0.97;;;0.80;;
12861;SDS011;6499;66.348;14.134;2023-03-16T09:33:06;1.63;;;0.90;;
12861;SDS011;6499;66.348;14.134;2023-03-16T09:35:33;2.73;;;1.00;;
12861;SDS011;6499;66.348;14.134;2023-03-16T09:38:01;2.03;;;1.03;;
12861;SDS011;6499;66.348;14.134;2023-03-16T09:40:28;2.23;;;1.80;;
12861;SDS011;6499;66.348;14.134;2023-03-16T09:43:01;2.10;;;1.80;;
12861;SDS011;6499;66.348;14.134;2023-03-16T09:45:33;2.60;;;1.63;;
12861;SDS011;6499;66.348;14.134;2023-03-16T09:48:01;2.20;;;2.00;;
12861;SDS011;6499;66.348;14.134;2023-03-16T09:50:30;1.97;;;1.00;;
12861;SDS011;6499;66.348;14.134;2023-03-16T09:52:59;3.37;;;2.07;;
12861;SDS011;6499;66.348;14.134;2023-03-16T09:55:27;1.30;;;1.10;;
12861;SDS011;6499;66.348;14.134;2023-03-16T09:57:56;2.03;;;1.00;;
12861;SDS011;6499;66.348;14.134;2023-03-16T10:00:25;3.67;;;1.73;;
12861;SDS011;6499;66.348;14.134;2023-03-16T10:02:57;0.77;;;0.67;;
12861;SDS011;6499;66.348;14.134;2023-03-16T10:05:27;3.33;;;1.00;;
12861;SDS011;6499;66.348;14.134;2023-03-16T10:07:58;2.77;;;0.60;;
12861;SDS011;6499;66.348;14.134;2023-03-16T10:10:33;1.40;;;0.70;;
12861;SDS011;6499;66.348;14.134;2023-03-16T10:13:04;0.90;;;0.70;;
12861;SDS011;6499;66.348;14.134;2023-03-16T10:15:34;1.17;;;0.73;;
12861;SDS011;6499;66.348;14.134;2023-03-16T10:18:03;2.40;;;1.50;;
12861;SDS011;6499;66.348;14.134;2023-03-16T10:20:33;1.63;;;0.80;;
12861;SDS011;6499;66.348;14.134;2023-03-16T10:23:07;1.17;;;0.80;;
12861;SDS011;6499;66.348;14.134;2023-03-16T10:25:40;0.83;;;0.60;;
12861;SDS011;6499;66.348;14.134;2023-03-16T10:28:09;3.20;;;0.70;;
12861;SDS011;6499;66.348;14.134;2023-03-16T10:30:37;0.93;;;0.80;;
12861;SDS011;6499;66.348;14.134;2023-03-16T10:33:10;2.10;;;0.90;;
12861;SDS011;6499;66.348;14.134;2023-03-16T10:35:40;1.00;;;0.70;;
12861;SDS011;6499;66.348;14.134;2023-03-16T10:38:24;1.53;;;0.70;;
12861;SDS011;6499;66.348;14.134;2023-03-16T10:40:51;0.73;;;0.70;;
12861;SDS011;6499;66.348;14.134;2023-03-16T10:43:18;1.60;;;0.80;;
12861;SDS011;6499;66.348;14.134;2023-03-16T10:45:46;1.43;;;0.80;;
12861;SDS011;6499;66.348;14.134;2023-03-16T10:48:14;1.00;;;0.77;;
12861;SDS011;6499;66.348;14.134;2023-03-16T10:50:43;1.37;;;0.70;;
12861;SDS011;6499;66.348;14.134;2023-03-16T10:53:14;0.80;;;0.80;;
12861;SDS011;6499;66.348;14.134;2023-03-16T10:55:42;1.47;;;0.87;;
12861;SDS011;6499;66.348;14.134;2023-03-16T10:58:09;2.17;;;0.77;;
12861;SDS011;6499;66.348;14.134;2023-03-16T11:00:40;1.20;;;0.80;;
12861;SDS011;6499;66.348;14.134;2023-03-16T11:03:19;0.73;;;0.67;;
12861;SDS011;6499;66.348;14.134;2023-03-16T11:05:47;1.37;;;1.00;;
12861;SDS011;6499;66.348;14.134;2023-03-16T11:08:14;1.30;;;0.70;;
12861;SDS011;6499;66.348;14.134;2023-03-16T11:10:44;1.10;;;0.80;;
12861;SDS011;6499;66.348;14.134;2023-03-16T11:13:12;1.73;;;0.80;;
12861;SDS011;6499;66.348;14.134;2023-03-16T11:15:40;1.30;;;0.80;;
12861;SDS011;6499;66.348;14.134;2023-03-16T11:18:10;1.73;;;0.90;;
12861;SDS011;6499;66.348;14.134;2023-03-16T11:20:43;0.90;;;0.77;;
12861;SDS011;6499;66.348;14.134;2023-03-16T11:23:10;1.00;;;0.70;;
12861;SDS011;6499;66.348;14.134;2023-03-16T11:25:42;1.87;;;1.00;;
12861;SDS011;6499;66.348;14.134;2023-03-16T11:28:12;1.20;;;0.80;;
12861;SDS011;6499;66.348;14.134;2023-03-16T11:30:41;0.97;;;0.83;;
12861;SDS011;6499;66.348;14.134;2023-03-16T11:33:12;2.40;;;0.87;;
12861;SDS011;6499;66.348;14.134;2023-03-16T11:35:41;2.17;;;0.90;;
12861;SDS011;6499;66.348;14.134;2023-03-16T11:38:14;1.63;;;0.90;;
12861;SDS011;6499;66.348;14.134;2023-03-16T11:40:47;1.37;;;0.90;;
12861;SDS011;6499;66.348;14.134;2023-03-16T11:43:28;1.60;;;0.80;;
12861;SDS011;6499;66.348;14.134;2023-03-16T11:46:01;3.23;;;0.80;;
12861;SDS011;6499;66.348;14.134;2023-03-16T11:48:33;1.30;;;0.90;;
12861;SDS011;6499;66.348;14.134;2023-03-16T11:51:03;1.10;;;1.00;;
12861;SDS011;6499;66.348;14.134;2023-03-16T11:53:34;2.10;;;0.80;;
12861;SDS011;6499;66.348;14.134;2023-03-16T11:56:05;1.70;;;0.80;;
12861;SDS011;6499;66.348;14.134;2023-03-16T11:58:39;1.23;;;0.70;;
12861;SDS011;6499;66.348;14.134;2023-03-16T12:01:10;2.60;;;1.00;;
12861;SDS011;6499;66.348;14.134;2023-03-16T12:03:43;1.93;;;1.03;;
12861;SDS011;6499;66.348;14.134;2023-03-16T12:06:15;1.83;;;0.90;;
12861;SDS011;6499;66.348;14.134;2023-03-16T12:08:51;1.30;;;1.13;;
12861;SDS011;6499;66.348;14.134;2023-03-16T12:11:23;1.20;;;1.10;;
12861;SDS011;6499;66.348;14.134;2023-03-16T12:13:58;2.40;;;1.30;;
12861;SDS011;6499;66.348;14.134;2023-03-16T12:16:27;1.67;;;0.90;;
12861;SDS011;6499;66.348;14.134;2023-03-16T12:18:56;1.53;;;0.80;;
12861;SDS011;6499;66.348;14.134;2023-03-16T12:21:25;1.27;;;0.73;;
12861;SDS011;6499;66.348;14.134;2023-03-16T12:23:57;2.10;;;1.00;;
12861;SDS011;6499;66.348;14.134;2023-03-16T12:26:26;1.23;;;1.00;;
12861;SDS011;6499;66.348;14.134;2023-03-16T12:28:54;1.20;;;1.10;;
12861;SDS011;6499;66.348;14.134;2023-03-16T12:31:22;1.27;;;0.93;;
12861;SDS011;6499;66.348;14.134;2023-03-16T12:34:01;1.27;;;0.80;;
12861;SDS011;6499;66.348;14.134;2023-03-16T12:36:45;2.20;;;1.00;;
12861;SDS011;6499;66.348;14.134;2023-03-16T12:39:16;1.70;;;0.90;;
12861;SDS011;6499;66.348;14.134;2023-03-16T12:41:48;1.27;;;0.90;;
12861;SDS011;6499;66.348;14.134;2023-03-16T12:44:18;1.50;;;0.80;;
12861;SDS011;6499;66.348;14.134;2023-03-16T12:46:48;2.33;;;1.10;;
12861;SDS011;6499;66.348;14.134;2023-03-16T12:49:20;1.30;;;0.97;;
12861;SDS011;6499;66.348;14.134;2023-03-16T12:51:57;2.30;;;1.23;;
12861;SDS011;6499;66.348;14.134;2023-03-16T12:54:25;2.30;;;0.90;;
12861;SDS011;6499;66.348;14.134;2023-03-16T12:56:52;3.13;;;1.00;;
12861;SDS011;6499;66.348;14.134;2023-03-16T12:59:21;2.00;;;1.13;;
12861;SDS011;6499;66.348;14.134;2023-03-16T13:01:48;1.83;;;1.03;;
12861;SDS011;6499;66.348;14.134;2023-03-16T13:04:17;2.33;;;1.10;;
12861;SDS011;6499;66.348;14.134;2023-03-16T13:06:45;1.70;;;1.00;;
12861;SDS011;6499;66.348;14.134;2023-03-16T13:09:16;2.67;;;1.07;;
12861;SDS011;6499;66.348;14.134;2023-03-16T13:11:45;2.37;;;1.10;;
12861;SDS011;6499;66.348;14.134;2023-03-16T13:14:14;1.73;;;0.90;;
12861;SDS011;6499;66.348;14.134;2023-03-16T13:16:41;1.23;;;0.70;;
12861;SDS011;6499;66.348;14.134;2023-03-16T13:19:16;2.77;;;1.30;;
12861;SDS011;6499;66.348;14.134;2023-03-16T13:21:43;2.47;;;1.10;;
12861;SDS011;6499;66.348;14.134;2023-03-16T13:24:14;2.03;;;1.10;;
12861;SDS011;6499;66.348;14.134;2023-03-16T13:26:49;2.77;;;1.17;;
12861;SDS011;6499;66.348;14.134;2023-03-16T13:29:22;1.70;;;1.10;;
12861;SDS011;6499;66.348;14.134;2023-03-16T13:31:49;1.70;;;1.00;;
12861;SDS011;6499;66.348;14.134;2023-03-16T13:34:20;1.93;;;0.80;;
12861;SDS011;6499;66.348;14.134;2023-03-16T13:36:47;1.93;;;1.00;;
12861;SDS011;6499;66.348;14.134;2023-03-16T13:39:17;1.40;;;0.90;;
12861;SDS011;6499;66.348;14.134;2023-03-16T13:41:54;3.87;;;1.90;;
12861;SDS011;6499;66.348;14.134;2023-03-16T13:44:21;2.93;;;2.00;;
12861;SDS011;6499;66.348;14.134;2023-03-16T13:46:49;4.10;;;2.07;;
12861;SDS011;6499;66.348;14.134;2023-03-16T13:49:15;1.43;;;0.87;;
12861;SDS011;6499;66.348;14.134;2023-03-16T13:51:43;1.37;;;1.00;;
12861;SDS011;6499;66.348;14.134;2023-03-16T13:54:15;2.30;;;1.10;;
12861;SDS011;6499;66.348;14.134;2023-03-16T13:56:44;1.87;;;0.90;;
12861;SDS011;6499;66.348;14.134;2023-03-16T13:59:12;1.37;;;0.90;;
12861;SDS011;6499;66.348;14.134;2023-03-16T14:01:41;1.60;;;0.97;;
12861;SDS011;6499;66.348;14.134;2023-03-16T14:04:09;2.33;;;0.97;;
12861;SDS011;6499;66.348;14.134;2023-03-16T14:06:38;2.30;;;0.80;;
12861;SDS011;6499;66.348;14.134;2023-03-16T14:09:05;1.03;;;0.73;;
12861;SDS011;6499;66.348;14.134;2023-03-16T14:11:33;2.53;;;1.07;;
12861;SDS011;6499;66.348;14.134;2023-03-16T14:14:00;1.83;;;0.90;;
12861;SDS011;6499;66.348;14.134;2023-03-16T14:16:28;1.20;;;0.80;;
12861;SDS011;6499;66.348;14.134;2023-03-16T14:18:56;1.40;;;1.00;;
12861;SDS011;6499;66.348;14.134;2023-03-16T14:21:24;1.63;;;0.90;;
12861;SDS011;6499;66.348;14.134;2023-03-16T14:23:51;1.67;;;1.00;;
12861;SDS011;6499;66.348;14.134;2023-03-16T14:26:19;2.43;;;1.17;;
12861;SDS011;6499;66.348;14.134;2023-03-16T14:28:52;2.10;;;0.90;;
12861;SDS011;6499;66.348;14.134;2023-03-16T14:31:20;1.93;;;1.20;;
12861;SDS011;6499;66.348;14.134;2023-03-16T14:33:48;0.90;;;0.80;;
12861;SDS011;6499;66.348;14.134;2023-03-16T14:36:32;1.17;;;0.90;;
12861;SDS011;6499;66.348;14.134;2023-03-16T14:39:08;1.33;;;0.83;;
12861;SDS011;6499;66.348;14.134;2023-03-16T14:41:34;1.97;;;0.83;;
12861;SDS011;6499;66.348;14.134;2023-03-16T14:44:02;2.80;;;0.93;;
12861;SDS011;6499;66.348;14.134;2023-03-16T14:46:29;2.73;;;1.20;;
12861;SDS011;6499;66.348;14.134;2023-03-16T14:49:02;2.10;;;1.23;;
12861;SDS011;6499;66.348;14.134;2023-03-16T14:51:32;2.00;;;1.10;;
12861;SDS011;6499;66.348;14.134;2023-03-16T14:53:59;2.30;;;1.00;;
12861;SDS011;6499;66.348;14.134;2023-03-16T14:56:30;3.63;;;2.00;;
12861;SDS011;6499;66.348;14.134;2023-03-16T14:58:58;2.93;;;1.57;;
12861;SDS011;6499;66.348;14.134;2023-03-16T15:01:24;2.80;;;1.87;;
12861;SDS011;6499;66.348;14.134;2023-03-16T15:03:51;2.37;;;1.57;;